createdAt,value
2022-11-13T00:00:31.730Z,92.60
2022-11-13T00:03:38.926Z,92.70
2022-11-13T00:06:43.203Z,92.60
2022-11-13T00:09:47.458Z,92.70
2022-11-13T00:12:56.726Z,92.50
2022-11-13T00:16:05.352Z,92.70
2022-11-13T00:19:09.533Z,92.80
2022-11-13T00:22:13.868Z,92.80
2022-11-13T00:25:21.080Z,92.90
2022-11-13T00:28:25.838Z,92.90
2022-11-13T00:31:31.337Z,92.90
2022-11-13T00:34:50.758Z,92.90
2022-11-13T00:37:55.127Z,92.90
2022-11-13T00:41:02.424Z,92.90
2022-11-13T00:44:06.975Z,93.00
2022-11-13T00:47:16.494Z,93.00
2022-11-13T00:50:20.578Z,93.00
2022-11-13T00:53:25.105Z,93.10
2022-11-13T00:56:29.557Z,93.20
2022-11-13T00:59:34.065Z,93.30
2022-11-13T01:02:38.190Z,93.20
2022-11-13T01:05:44.816Z,93.10
2022-11-13T01:08:49.764Z,93.20
2022-11-13T01:11:54.635Z,93.20
2022-11-13T01:14:59.705Z,93.20
2022-11-13T01:18:04.328Z,93.10
2022-11-13T01:21:11.842Z,93.30
2022-11-13T01:24:16.087Z,93.20
2022-11-13T01:27:20.474Z,93.10
2022-11-13T01:30:24.599Z,93.30
2022-11-13T01:33:32.216Z,93.30
2022-11-13T01:36:36.697Z,93.30
2022-11-13T01:39:44.278Z,93.30
2022-11-13T01:42:48.755Z,93.40
2022-11-13T01:45:58.842Z,93.20
2022-11-13T01:49:12.576Z,93.10
2022-11-13T01:52:27.234Z,93.20
2022-11-13T01:55:31.413Z,93.20
2022-11-13T01:58:40.678Z,93.20
2022-11-13T02:01:45.007Z,93.20
2022-11-13T02:04:49.169Z,93.20
2022-11-13T02:07:53.606Z,93.10
2022-11-13T02:10:58.249Z,93.20
2022-11-13T02:14:04.274Z,93.20
2022-11-13T02:17:13.102Z,93.30
2022-11-13T02:20:27.873Z,93.30
2022-11-13T02:23:48.618Z,93.40
2022-11-13T02:26:55.776Z,93.40
2022-11-13T02:30:12.831Z,93.40
2022-11-13T02:33:30.350Z,93.40
2022-11-13T02:36:35.858Z,93.60
2022-11-13T02:39:40.889Z,93.50
2022-11-13T02:42:45.563Z,93.50
2022-11-13T02:45:49.885Z,93.50
2022-11-13T02:48:54.607Z,93.60
2022-11-13T02:51:58.844Z,93.60
2022-11-13T02:55:04.206Z,93.50
2022-11-13T02:58:08.301Z,93.60
2022-11-13T03:01:12.996Z,93.50
2022-11-13T03:04:17.428Z,93.70
2022-11-13T03:07:21.710Z,93.90
2022-11-13T03:10:26.163Z,93.90
2022-11-13T03:13:32.204Z,93.90
2022-11-13T03:16:36.741Z,94.10
2022-11-13T03:19:41.222Z,94.20
2022-11-13T03:22:45.623Z,94.30
2022-11-13T03:25:49.883Z,94.40
2022-11-13T03:28:54.574Z,94.40
2022-11-13T03:31:58.822Z,94.40
2022-11-13T03:35:03.481Z,94.20
2022-11-13T03:38:07.774Z,94.20
2022-11-13T03:41:14.805Z,94.10
2022-11-13T03:44:19.256Z,94.10
2022-11-13T03:47:23.623Z,94.10
2022-11-13T03:50:28.030Z,94.10
2022-11-13T03:53:32.694Z,94.10
2022-11-13T03:56:36.743Z,94.10
2022-11-13T03:59:41.009Z,94.00
2022-11-13T04:02:45.382Z,94.10
2022-11-13T04:05:50.756Z,94.00
2022-11-13T04:08:54.947Z,94.10
2022-11-13T04:11:59.395Z,94.10
2022-11-13T04:15:04.035Z,94.00
2022-11-13T04:18:11.728Z,94.10
2022-11-13T04:21:18.561Z,94.10
2022-11-13T04:24:22.835Z,94.10
2022-11-13T04:27:27.390Z,94.20
2022-11-13T04:30:31.750Z,94.30
2022-11-13T04:33:36.289Z,94.20
2022-11-13T04:36:40.373Z,94.30
2022-11-13T04:39:45.125Z,94.30
2022-11-13T04:42:52.198Z,94.30
2022-11-13T04:45:56.556Z,94.50
2022-11-13T04:49:01.138Z,94.50
2022-11-13T04:52:08.906Z,94.50
2022-11-13T04:55:13.603Z,94.50
2022-11-13T04:58:17.821Z,94.50
2022-11-13T05:01:22.669Z,94.40
2022-11-13T05:04:26.663Z,94.40
2022-11-13T05:07:31.286Z,94.40
2022-11-13T05:10:35.689Z,94.20
2022-11-13T05:13:39.995Z,94.20
2022-11-13T05:16:44.951Z,94.10
2022-11-13T05:19:49.133Z,94.10
2022-11-13T05:22:53.746Z,94.10
2022-11-13T05:26:04.268Z,94.10
2022-11-13T05:29:08.889Z,94.00
2022-11-13T05:32:16.023Z,94.10
2022-11-13T05:35:20.861Z,94.50
2022-11-13T05:38:25.495Z,94.10
2022-11-13T05:41:33.118Z,94.20
2022-11-13T05:44:37.356Z,94.20
2022-11-13T05:47:41.782Z,94.10
2022-11-13T05:50:46.274Z,94.10
2022-11-13T05:53:51.202Z,94.00
2022-11-13T05:56:55.119Z,94.20
2022-11-13T05:59:59.387Z,94.10
2022-11-13T06:03:03.795Z,94.10
2022-11-13T06:06:11.465Z,94.10
2022-11-13T06:09:18.903Z,94.10
2022-11-13T06:12:32.931Z,94.40
2022-11-13T06:15:37.478Z,94.50
2022-11-13T06:18:43.411Z,94.60
2022-11-13T06:21:50.442Z,94.70
2022-11-13T06:24:54.722Z,94.80
2022-11-13T06:27:59.163Z,94.80
2022-11-13T06:31:10.638Z,95.10
2022-11-13T06:34:15.639Z,94.90
2022-11-13T06:37:19.819Z,94.90
2022-11-13T06:40:24.192Z,95.00
2022-11-13T06:43:29.090Z,94.90
2022-11-13T06:46:33.589Z,94.90
2022-11-13T06:49:40.823Z,94.80
2022-11-13T06:52:45.298Z,94.70
2022-11-13T06:55:50.775Z,94.60
2022-11-13T06:58:56.181Z,94.50
2022-11-13T07:02:00.476Z,94.40
2022-11-13T07:05:04.914Z,94.40
2022-11-13T07:08:09.229Z,94.30
2022-11-13T07:11:20.228Z,94.20
2022-11-13T07:14:26.959Z,94.20
2022-11-13T07:17:31.513Z,94.10
2022-11-13T07:20:35.793Z,94.10
2022-11-13T07:23:43.286Z,94.30
2022-11-13T07:26:50.485Z,94.40
2022-11-13T07:29:59.521Z,94.30
2022-11-13T07:33:07.367Z,94.30
2022-11-13T07:36:14.493Z,94.30
2022-11-13T07:39:18.769Z,94.30
2022-11-13T07:42:23.286Z,94.30
2022-11-13T07:45:28.811Z,94.30
2022-11-13T07:48:33.057Z,94.20
2022-11-13T07:51:37.714Z,94.10
2022-11-13T07:54:42.510Z,94.00
2022-11-13T07:57:50.003Z,93.90
2022-11-13T08:01:05.432Z,94.00
2022-11-13T08:04:09.631Z,94.00
2022-11-13T08:07:14.323Z,93.80
2022-11-13T08:10:20.202Z,93.90
2022-11-13T08:13:24.864Z,93.90
2022-11-13T08:16:29.369Z,93.90
2022-11-13T08:19:33.500Z,93.80
2022-11-13T08:22:38.035Z,93.80
2022-11-13T08:25:43.974Z,93.80
2022-11-13T08:28:49.035Z,93.90
2022-11-13T08:31:53.575Z,93.90
2022-11-13T08:34:57.606Z,93.90
2022-11-13T08:38:07.002Z,93.90
2022-11-13T08:41:11.546Z,93.80
2022-11-13T08:44:15.623Z,93.90
2022-11-13T08:47:19.928Z,93.70
2022-11-13T08:50:25.941Z,93.60
2022-11-13T08:53:30.148Z,93.50
2022-11-13T08:56:34.134Z,93.50
2022-11-13T08:59:38.761Z,93.40
2022-11-13T09:02:44.474Z,93.30
2022-11-13T09:05:57.918Z,93.20
2022-11-13T09:09:05.059Z,93.20
2022-11-13T09:12:09.238Z,93.00
2022-11-13T09:15:20.313Z,93.30
2022-11-13T09:18:31.426Z,92.80
2022-11-13T09:21:35.684Z,92.80
2022-11-13T09:24:39.795Z,92.70
2022-11-13T09:27:44.014Z,92.70
2022-11-13T09:30:48.710Z,92.60
2022-11-13T09:33:53.341Z,92.50
2022-11-13T09:37:01.881Z,92.30
2022-11-13T09:40:07.751Z,92.30
2022-11-13T09:43:24.882Z,92.00
2022-11-13T09:46:56.396Z,92.00
2022-11-13T09:50:23.075Z,92.00
2022-11-13T09:53:33.672Z,92.00
2022-11-13T09:56:43.622Z,91.80
2022-11-13T10:00:05.700Z,92.20
2022-11-13T10:03:23.990Z,91.70
2022-11-13T10:07:03.849Z,91.60
2022-11-13T10:10:21.770Z,91.40
2022-11-13T10:13:32.763Z,91.30
2022-11-13T10:17:00.537Z,91.30
2022-11-13T10:20:12.535Z,91.00
2022-11-13T10:23:44.279Z,90.80
2022-11-13T10:26:48.992Z,90.70
2022-11-13T10:29:53.374Z,90.70
2022-11-13T10:33:05.923Z,90.50
2022-11-13T10:36:37.877Z,90.40
2022-11-13T10:39:45.863Z,90.40
2022-11-13T10:42:50.460Z,90.30
2022-11-13T10:46:00.835Z,90.10
2022-11-13T10:49:13.951Z,90.00
2022-11-13T10:52:25.212Z,89.70
2022-11-13T10:55:39.801Z,89.20
2022-11-13T10:58:44.428Z,88.20
2022-11-13T11:01:50.378Z,86.40
2022-11-13T11:05:05.186Z,85.00
2022-11-13T11:08:11.225Z,84.00
2022-11-13T11:11:37.520Z,83.40
2022-11-13T11:14:57.311Z,82.30
2022-11-13T11:18:17.031Z,80.80
2022-11-13T11:21:29.014Z,79.20
2022-11-13T11:24:42.203Z,76.30
2022-11-13T11:27:51.203Z,71.60
2022-11-13T11:31:22.899Z,68.20
2022-11-13T11:34:35.247Z,63.10
2022-11-13T11:38:02.744Z,57.80
2022-11-13T11:41:16.780Z,54.80
2022-11-13T11:44:42.601Z,51.80
2022-11-13T11:47:50.304Z,48.00
2022-11-13T11:51:31.379Z,46.40
2022-11-13T11:55:13.006Z,42.30
2022-11-13T11:59:02.717Z,39.80
2022-11-13T12:02:47.275Z,37.40
2022-11-13T12:06:25.395Z,36.10
2022-11-13T12:09:38.010Z,34.10
2022-11-13T12:13:11.470Z,32.50
2022-11-13T12:16:30.001Z,31.70
2022-11-13T12:19:48.039Z,32.40
2022-11-13T12:22:58.509Z,30.90
2022-11-13T12:26:30.729Z,30.40
2022-11-13T12:29:52.209Z,31.70
2022-11-13T12:33:05.897Z,31.90
2022-11-13T12:36:12.816Z,32.00
2022-11-13T12:39:38.426Z,32.30
2022-11-13T12:42:48.685Z,30.70
2022-11-13T12:45:57.439Z,30.20
2022-11-13T12:49:01.910Z,29.30
2022-11-13T12:52:15.689Z,27.70
2022-11-13T12:55:29.222Z,27.00
2022-11-13T12:58:33.547Z,26.10
2022-11-13T13:01:46.035Z,25.80
2022-11-13T13:05:10.986Z,25.10
2022-11-13T13:08:18.447Z,24.20
2022-11-13T13:11:44.853Z,24.50
2022-11-13T13:15:11.799Z,23.70
2022-11-13T13:18:19.067Z,23.20
2022-11-13T13:21:26.395Z,23.20
2022-11-13T13:24:34.818Z,22.90
2022-11-13T13:27:39.393Z,22.70
2022-11-13T13:31:05.712Z,22.50
2022-11-13T13:34:46.385Z,22.10
2022-11-13T13:38:08.470Z,21.70
2022-11-13T13:41:28.664Z,21.60
2022-11-13T13:44:40.410Z,21.80
2022-11-13T13:47:48.271Z,22.00
2022-11-13T13:50:53.554Z,21.80
2022-11-13T13:53:59.843Z,21.70
2022-11-13T13:57:03.982Z,21.30
2022-11-13T14:00:16.608Z,21.00
2022-11-13T14:03:23.040Z,20.80
2022-11-13T14:06:27.411Z,20.70
2022-11-13T14:09:31.988Z,20.60
2022-11-13T14:12:40.868Z,20.50
2022-11-13T14:15:45.181Z,20.60
2022-11-13T14:18:49.468Z,20.70
2022-11-13T14:21:58.490Z,20.70
2022-11-13T14:25:03.188Z,20.90
2022-11-13T14:28:13.670Z,20.90
2022-11-13T14:31:17.968Z,21.10
2022-11-13T14:34:23.984Z,21.00
2022-11-13T14:37:33.908Z,20.90
2022-11-13T14:40:38.293Z,21.00
2022-11-13T14:43:50.723Z,21.30
2022-11-13T14:47:05.134Z,21.40
2022-11-13T14:50:20.824Z,22.00
2022-11-13T14:53:34.624Z,22.30
2022-11-13T14:56:43.324Z,22.50
2022-11-13T14:59:47.544Z,22.90
2022-11-13T15:02:51.782Z,23.30
2022-11-13T15:05:56.333Z,23.80
2022-11-13T15:09:00.971Z,24.30
2022-11-13T15:12:05.346Z,25.00
2022-11-13T15:15:14.858Z,25.40
2022-11-13T15:18:20.386Z,25.90
2022-11-13T15:21:24.959Z,26.60
2022-11-13T15:24:29.290Z,27.80
2022-11-13T15:27:38.969Z,29.60
2022-11-13T15:30:47.160Z,31.70
2022-11-13T15:33:51.306Z,33.90
2022-11-13T15:36:55.984Z,35.80
2022-11-13T15:40:00.567Z,36.90
2022-11-13T15:43:06.260Z,37.10
2022-11-13T15:46:16.117Z,37.70
2022-11-13T15:49:20.158Z,39.10
2022-11-13T15:52:26.474Z,40.50
2022-11-13T15:55:32.086Z,42.20
2022-11-13T15:58:37.684Z,43.80
2022-11-13T16:01:42.479Z,45.20
2022-11-13T16:04:56.087Z,46.70
2022-11-13T16:08:01.126Z,48.00
2022-11-13T16:11:05.588Z,49.20
2022-11-13T16:14:10.900Z,50.30
2022-11-13T16:17:20.790Z,51.30
2022-11-13T16:20:25.171Z,52.20
2022-11-13T16:23:30.502Z,53.30
2022-11-13T16:26:34.865Z,54.10
2022-11-13T16:29:39.131Z,54.90
2022-11-13T16:32:43.331Z,55.60
2022-11-13T16:35:49.150Z,56.30
2022-11-13T16:38:55.600Z,57.00
2022-11-13T16:42:00.157Z,57.60
2022-11-13T16:45:04.952Z,58.20
2022-11-13T16:48:15.977Z,58.80
2022-11-13T16:51:20.403Z,59.30
2022-11-13T16:54:27.397Z,59.70
2022-11-13T16:57:31.746Z,60.10
2022-11-13T17:00:36.014Z,60.30
2022-11-13T17:03:40.329Z,60.90
2022-11-13T17:06:44.825Z,61.30
2022-11-13T17:09:58.899Z,61.80
2022-11-13T17:13:09.866Z,62.40
2022-11-13T17:16:14.679Z,62.90
2022-11-13T17:19:19.398Z,63.40
2022-11-13T17:22:23.838Z,63.80
2022-11-13T17:25:28.367Z,64.50
2022-11-13T17:28:32.837Z,65.10
2022-11-13T17:31:37.433Z,65.80
2022-11-13T17:34:44.785Z,66.20
2022-11-13T17:37:49.157Z,66.70
2022-11-13T17:40:56.373Z,67.00
2022-11-13T17:44:03.498Z,67.40
2022-11-13T17:47:08.258Z,67.60
2022-11-13T17:50:12.970Z,68.00
2022-11-13T17:53:17.159Z,68.20
2022-11-13T17:56:21.398Z,68.50
2022-11-13T17:59:25.759Z,69.30
2022-11-13T18:02:30.563Z,69.40
2022-11-13T18:05:40.556Z,69.70
2022-11-13T18:08:45.638Z,70.10
2022-11-13T18:11:49.794Z,71.20
2022-11-13T18:14:56.991Z,71.20
2022-11-13T18:18:01.241Z,71.50
2022-11-13T18:21:23.915Z,71.90
2022-11-13T18:24:28.150Z,72.40
2022-11-13T18:27:32.547Z,72.60
2022-11-13T18:30:39.262Z,73.10
2022-11-13T18:33:44.461Z,73.50
2022-11-13T18:36:49.101Z,74.10
2022-11-13T18:39:53.458Z,74.40
2022-11-13T18:42:57.315Z,74.50
2022-11-13T18:46:07.074Z,74.50
2022-11-13T18:49:11.162Z,74.50
2022-11-13T18:52:15.967Z,74.60
2022-11-13T18:55:20.190Z,75.00
2022-11-13T18:58:24.878Z,75.60
2022-11-13T19:01:31.766Z,75.70
2022-11-13T19:04:36.299Z,76.00
2022-11-13T19:07:40.820Z,76.50
2022-11-13T19:10:44.978Z,76.50
2022-11-13T19:13:49.838Z,77.00
2022-11-13T19:16:53.890Z,77.30
2022-11-13T19:19:58.526Z,77.30
2022-11-13T19:23:07.882Z,77.60
2022-11-13T19:26:13.153Z,78.70
2022-11-13T19:29:17.517Z,78.50
2022-11-13T19:32:22.136Z,78.50
2022-11-13T19:35:26.947Z,78.60
2022-11-13T19:38:31.752Z,78.60
2022-11-13T19:41:36.260Z,78.70
2022-11-13T19:44:40.307Z,79.00
2022-11-13T19:47:44.696Z,79.50
2022-11-13T19:50:49.482Z,79.60
2022-11-13T19:53:55.902Z,79.90
2022-11-13T19:57:00.230Z,80.20
2022-11-13T20:00:09.055Z,81.20
2022-11-13T20:03:16.490Z,81.50
2022-11-13T20:06:21.037Z,81.90
2022-11-13T20:09:25.354Z,82.90
2022-11-13T20:12:30.562Z,83.40
2022-11-13T20:15:35.257Z,84.20
2022-11-13T20:18:41.266Z,84.30
2022-11-13T20:21:45.793Z,84.90
2022-11-13T20:24:50.280Z,85.10
2022-11-13T20:27:59.608Z,85.20
2022-11-13T20:31:20.368Z,85.20
2022-11-13T20:34:24.835Z,85.80
2022-11-13T20:37:29.016Z,85.80
2022-11-13T20:40:33.542Z,86.40
2022-11-13T20:43:38.507Z,86.70
2022-11-13T20:46:43.038Z,87.10
2022-11-13T20:49:47.812Z,86.70
2022-11-13T20:52:52.177Z,87.20
2022-11-13T20:55:56.645Z,86.90
2022-11-13T20:59:03.970Z,87.40
2022-11-13T21:02:10.477Z,88.00
2022-11-13T21:05:15.325Z,88.00
2022-11-13T21:08:19.915Z,88.20
2022-11-13T21:11:29.411Z,88.20
2022-11-13T21:14:33.831Z,88.40
2022-11-13T21:17:38.190Z,88.60
2022-11-13T21:20:42.326Z,89.10
2022-11-13T21:23:47.784Z,88.90
2022-11-13T21:26:52.006Z,88.80
2022-11-13T21:29:56.643Z,89.10
2022-11-13T21:33:01.205Z,89.20
2022-11-13T21:36:23.223Z,89.20
2022-11-13T21:39:27.121Z,89.60
2022-11-13T21:42:31.872Z,89.60
2022-11-13T21:45:36.046Z,90.00
2022-11-13T21:48:41.891Z,89.90
2022-11-13T21:51:45.769Z,90.10
2022-11-13T21:54:49.914Z,90.10
2022-11-13T21:57:54.421Z,90.30
2022-11-13T22:00:59.567Z,90.20
2022-11-13T22:04:03.897Z,90.10
2022-11-13T22:07:08.311Z,90.10
2022-11-13T22:10:12.830Z,90.20
2022-11-13T22:13:17.445Z,90.40
2022-11-13T22:16:22.741Z,90.50
2022-11-13T22:19:30.155Z,90.60
2022-11-13T22:22:36.879Z,90.60
2022-11-13T22:25:41.495Z,90.60
2022-11-13T22:28:46.932Z,90.60
2022-11-13T22:31:51.254Z,90.50
2022-11-13T22:34:55.315Z,90.50
2022-11-13T22:38:02.157Z,90.60
2022-11-13T22:41:13.075Z,90.50
2022-11-13T22:44:22.447Z,90.60
2022-11-13T22:47:26.719Z,90.80
2022-11-13T22:50:31.226Z,90.90
2022-11-13T22:53:36.198Z,91.00
2022-11-13T22:56:41.639Z,91.00
2022-11-13T22:59:45.791Z,91.10
2022-11-13T23:02:50.389Z,91.20
2022-11-13T23:05:59.058Z,91.10
2022-11-13T23:09:04.400Z,91.10
2022-11-13T23:12:12.697Z,91.20
2022-11-13T23:15:16.874Z,91.20
2022-11-13T23:18:21.430Z,91.30
2022-11-13T23:21:29.943Z,91.40
2022-11-13T23:24:34.060Z,91.50
2022-11-13T23:27:38.590Z,91.60
2022-11-13T23:30:42.867Z,91.60
2022-11-13T23:33:47.502Z,91.60
2022-11-13T23:36:52.287Z,91.60
2022-11-13T23:39:56.783Z,91.60
2022-11-13T23:43:03.674Z,91.60
2022-11-13T23:46:07.860Z,91.70
2022-11-13T23:49:12.554Z,91.70
2022-11-13T23:52:16.688Z,91.70
2022-11-13T23:55:21.414Z,91.70
2022-11-13T23:58:26.301Z,91.90
